createdAt,value
2017-11-06T00:00:55.619Z,11.50
2017-11-06T00:03:23.235Z,11.30
2017-11-06T00:05:51.582Z,10.63
2017-11-06T00:08:19.216Z,10.65
2017-11-06T00:10:46.786Z,10.75
2017-11-06T00:13:14.398Z,11.40
2017-11-06T00:15:42.047Z,10.40
2017-11-06T00:18:10.413Z,11.20
2017-11-06T00:20:38.021Z,9.85
2017-11-06T00:23:05.597Z,11.85
2017-11-06T00:25:33.207Z,11.50
2017-11-06T00:28:00.813Z,11.12
2017-11-06T00:30:28.461Z,10.90
2017-11-06T00:32:56.038Z,10.77
2017-11-06T00:35:23.653Z,12.00
2017-11-06T00:37:51.280Z,13.05
2017-11-06T00:40:18.861Z,11.85
2017-11-06T00:42:46.469Z,11.65
2017-11-06T00:45:14.087Z,12.85
2017-11-06T00:47:41.663Z,11.40
2017-11-06T00:50:09.326Z,12.68
2017-11-06T00:52:36.952Z,10.30
2017-11-06T00:55:04.580Z,12.18
2017-11-06T00:57:32.197Z,12.05
2017-11-06T00:59:59.779Z,11.25
2017-11-06T01:02:28.184Z,13.02
2017-11-06T01:04:55.786Z,11.60
2017-11-06T01:07:23.382Z,10.73
2017-11-06T01:09:51.788Z,11.55
2017-11-06T01:12:19.371Z,11.02
2017-11-06T01:14:46.960Z,12.10
2017-11-06T01:17:14.588Z,10.65
2017-11-06T01:19:42.282Z,11.15
2017-11-06T01:22:09.904Z,11.95
2017-11-06T01:24:38.198Z,12.88
2017-11-06T01:27:05.826Z,11.60
2017-11-06T01:29:34.219Z,11.63
2017-11-06T01:32:01.807Z,11.30
2017-11-06T01:34:29.707Z,10.52
2017-11-06T01:36:57.297Z,11.90
2017-11-06T01:39:24.889Z,11.25
2017-11-06T01:41:52.531Z,11.77
2017-11-06T01:44:20.122Z,12.68
2017-11-06T01:46:47.752Z,12.75
2017-11-06T01:49:15.318Z,12.00
2017-11-06T01:51:42.894Z,11.38
2017-11-06T01:54:10.517Z,11.73
2017-11-06T01:56:38.915Z,12.48
2017-11-06T01:59:06.494Z,13.85
2017-11-06T02:01:34.063Z,12.25
2017-11-06T02:04:01.688Z,11.50
2017-11-06T02:06:30.022Z,11.90
2017-11-06T02:08:57.654Z,11.65
2017-11-06T02:11:25.231Z,13.82
2017-11-06T02:13:52.799Z,11.75
2017-11-06T02:16:20.405Z,11.55
2017-11-06T02:18:48.810Z,11.95
2017-11-06T02:21:16.403Z,12.45
2017-11-06T02:23:43.986Z,12.25
2017-11-06T02:26:11.607Z,12.85
2017-11-06T02:28:39.182Z,12.02
2017-11-06T02:31:06.834Z,12.25
2017-11-06T02:33:34.418Z,10.82
2017-11-06T02:36:02.055Z,11.98
2017-11-06T02:38:29.642Z,11.68
2017-11-06T02:40:57.224Z,12.07
2017-11-06T02:43:24.865Z,11.52
2017-11-06T02:45:52.430Z,11.18
2017-11-06T02:48:20.007Z,10.80
2017-11-06T02:50:48.461Z,12.75
2017-11-06T02:53:16.063Z,12.37
2017-11-06T02:55:44.420Z,12.15
2017-11-06T02:58:12.031Z,11.48
2017-11-06T03:00:39.666Z,11.68
2017-11-06T03:03:08.059Z,11.48
2017-11-06T03:05:35.651Z,11.02
2017-11-06T03:08:03.245Z,12.02
2017-11-06T03:10:30.843Z,11.80
2017-11-06T03:12:58.446Z,12.93
2017-11-06T03:15:26.041Z,11.12
2017-11-06T03:17:53.639Z,11.70
2017-11-06T03:20:21.255Z,10.20
2017-11-06T03:22:48.887Z,10.90
2017-11-06T03:25:16.491Z,13.90
2017-11-06T03:27:44.881Z,11.65
2017-11-06T03:30:13.268Z,11.65
2017-11-06T03:32:41.607Z,12.13
2017-11-06T03:35:09.176Z,12.37
2017-11-06T03:37:36.796Z,12.27
2017-11-06T03:40:04.377Z,12.70
2017-11-06T03:42:32.298Z,12.07
2017-11-06T03:45:00.644Z,12.37
2017-11-06T03:47:28.213Z,10.75
2017-11-06T03:49:55.836Z,12.57
2017-11-06T03:52:23.417Z,12.75
2017-11-06T03:54:51.048Z,12.48
2017-11-06T03:57:18.652Z,12.30
2017-11-06T03:59:46.223Z,10.90
2017-11-06T04:02:15.110Z,11.30
2017-11-06T04:04:42.713Z,13.15
2017-11-06T04:07:10.327Z,11.65
2017-11-06T04:09:37.970Z,12.23
2017-11-06T04:12:05.561Z,11.50
2017-11-06T04:14:33.153Z,12.23
2017-11-06T04:17:00.776Z,11.90
2017-11-06T04:19:28.338Z,12.55
2017-11-06T04:21:55.943Z,12.02
2017-11-06T04:24:23.528Z,12.70
2017-11-06T04:26:51.926Z,11.70
2017-11-06T04:29:19.532Z,13.15
2017-11-06T04:31:47.112Z,12.63
2017-11-06T04:34:14.754Z,11.55
2017-11-06T04:36:42.758Z,11.60
2017-11-06T04:39:10.380Z,11.75
2017-11-06T04:41:38.006Z,12.27
2017-11-06T04:44:05.649Z,12.55
2017-11-06T04:46:33.325Z,13.23
2017-11-06T04:49:00.958Z,13.07
2017-11-06T04:51:28.558Z,11.60
2017-11-06T04:53:56.171Z,12.35
2017-11-06T04:56:23.743Z,13.50
2017-11-06T04:58:51.360Z,13.95
2017-11-06T05:01:18.996Z,13.77
2017-11-06T05:03:46.572Z,13.43
2017-11-06T05:06:14.163Z,12.48
2017-11-06T05:08:42.554Z,13.23
2017-11-06T05:11:10.141Z,13.48
2017-11-06T05:13:37.725Z,12.77
2017-11-06T05:16:05.407Z,13.75
2017-11-06T05:18:33.016Z,13.35
2017-11-06T05:21:00.591Z,12.07
2017-11-06T05:23:28.215Z,13.73
2017-11-06T05:25:55.806Z,12.43
2017-11-06T05:28:23.387Z,13.10
2017-11-06T05:30:51.021Z,13.05
2017-11-06T05:33:18.598Z,13.50
2017-11-06T05:35:46.276Z,12.25
2017-11-06T05:38:13.857Z,13.80
2017-11-06T05:40:41.433Z,13.15
2017-11-06T05:43:09.823Z,14.20
2017-11-06T05:45:38.245Z,13.48
2017-11-06T05:48:05.852Z,13.70
2017-11-06T05:50:34.210Z,14.45
2017-11-06T05:53:01.837Z,15.13
2017-11-06T05:55:29.477Z,14.35
2017-11-06T05:57:57.107Z,13.62
2017-11-06T06:00:24.724Z,14.50
2017-11-06T06:02:52.357Z,15.23
2017-11-06T06:05:19.996Z,14.45
2017-11-06T06:07:47.594Z,14.55
2017-11-06T06:10:15.217Z,14.20
2017-11-06T06:12:42.837Z,13.77
2017-11-06T06:15:10.483Z,15.52
2017-11-06T06:17:38.106Z,13.85
2017-11-06T06:20:05.695Z,13.75
2017-11-06T06:22:33.310Z,15.10
2017-11-06T06:25:00.974Z,14.23
2017-11-06T06:27:28.557Z,15.60
2017-11-06T06:29:56.234Z,14.95
2017-11-06T06:32:23.884Z,14.57
2017-11-06T06:34:51.524Z,16.35
2017-11-06T06:37:19.131Z,13.93
2017-11-06T06:39:46.775Z,13.68
2017-11-06T06:42:14.473Z,15.68
2017-11-06T06:44:42.077Z,14.68
2017-11-06T06:47:09.745Z,15.68
2017-11-06T06:49:37.366Z,15.27
2017-11-06T06:52:05.628Z,16.20
2017-11-06T06:54:33.571Z,17.40
2017-11-06T06:57:01.639Z,15.95
2017-11-06T06:59:29.649Z,15.85
2017-11-06T07:01:58.435Z,15.13
2017-11-06T07:04:27.459Z,16.52
2017-11-06T07:06:55.493Z,14.87
2017-11-06T07:09:23.494Z,14.38
2017-11-06T07:11:51.606Z,15.23
2017-11-06T07:14:19.877Z,15.02
2017-11-06T07:16:48.042Z,17.25
2017-11-06T07:19:15.790Z,17.10
2017-11-06T07:21:43.433Z,16.77
2017-11-06T07:24:11.505Z,16.62
2017-11-06T07:26:39.322Z,17.25
2017-11-06T07:29:07.726Z,17.45
2017-11-06T07:31:35.447Z,15.82
2017-11-06T07:34:03.046Z,14.70
2017-11-06T07:36:30.740Z,15.18
2017-11-06T07:38:58.341Z,16.37
2017-11-06T07:41:26.378Z,30.50
2017-11-06T07:43:54.550Z,35.63
2017-11-06T07:46:22.223Z,18.62
2017-11-06T07:48:49.898Z,15.60
2017-11-06T07:51:17.477Z,16.25
2017-11-06T07:56:28.161Z,16.48
2017-11-06T07:58:55.969Z,14.48
2017-11-06T08:01:23.873Z,16.58
2017-11-06T08:03:51.532Z,15.75
2017-11-06T08:06:19.116Z,15.10
2017-11-06T08:08:46.783Z,16.33
2017-11-06T08:11:14.403Z,15.65
2017-11-06T08:13:42.062Z,16.80
2017-11-06T08:16:09.808Z,16.50
2017-11-06T08:18:37.423Z,17.10
2017-11-06T08:21:05.083Z,17.17
2017-11-06T08:23:32.716Z,16.52
2017-11-06T08:26:00.503Z,15.45
2017-11-06T08:28:28.123Z,17.27
2017-11-06T08:30:55.867Z,16.33
2017-11-06T08:33:24.263Z,17.87
2017-11-06T08:35:51.930Z,17.37
2017-11-06T08:38:19.577Z,18.45
2017-11-06T08:40:47.955Z,16.92
2017-11-06T08:43:15.636Z,16.80
2017-11-06T08:45:43.262Z,15.80
2017-11-06T08:48:11.099Z,17.27
2017-11-06T08:50:38.727Z,16.20
2017-11-06T08:53:06.376Z,16.83
2017-11-06T08:55:34.730Z,17.12
2017-11-06T08:58:02.368Z,17.35
2017-11-06T09:00:30.490Z,16.65
2017-11-06T09:02:58.205Z,17.10
2017-11-06T09:05:25.881Z,17.05
2017-11-06T09:07:55.414Z,16.62
2017-11-06T09:10:23.064Z,16.90
2017-11-06T09:12:50.675Z,16.35
2017-11-06T09:15:18.266Z,16.60
2017-11-06T09:17:45.903Z,15.70
2017-11-06T09:20:13.489Z,17.20
2017-11-06T09:22:41.472Z,17.05
2017-11-06T09:25:10.041Z,17.25
2017-11-06T09:27:37.753Z,17.70
2017-11-06T09:30:06.120Z,17.90
2017-11-06T09:32:34.739Z,16.42
2017-11-06T09:35:02.612Z,15.82
2017-11-06T09:37:31.346Z,17.30
2017-11-06T09:39:58.980Z,16.35
2017-11-06T09:42:26.712Z,16.35
2017-11-06T09:44:54.295Z,16.65
2017-11-06T09:47:21.888Z,15.80
2017-11-06T09:49:49.531Z,17.92
2017-11-06T09:52:17.944Z,15.27
2017-11-06T09:54:47.334Z,16.23
2017-11-06T09:57:14.984Z,15.40
2017-11-06T09:59:42.584Z,16.87
2017-11-06T10:02:10.968Z,15.68
2017-11-06T10:04:39.548Z,15.07
2017-11-06T10:07:07.968Z,16.30
2017-11-06T10:09:35.545Z,15.60
2017-11-06T10:12:03.126Z,14.60
2017-11-06T10:14:31.231Z,15.00
2017-11-06T10:17:00.522Z,14.73
2017-11-06T10:19:28.148Z,15.57
2017-11-06T10:21:55.730Z,16.77
2017-11-06T10:24:23.353Z,17.05
2017-11-06T10:26:50.977Z,16.45
2017-11-06T10:29:18.621Z,19.17
2017-11-06T10:31:46.257Z,15.07
2017-11-06T10:34:13.883Z,15.43
2017-11-06T10:36:41.666Z,14.57
2017-11-06T10:39:09.323Z,14.80
2017-11-06T10:41:37.327Z,12.85
2017-11-06T10:44:06.070Z,13.88
2017-11-06T10:46:34.219Z,13.73
2017-11-06T10:49:02.112Z,12.80
2017-11-06T10:51:29.878Z,13.98
2017-11-06T10:53:57.760Z,13.62
2017-11-06T10:56:26.759Z,13.95
2017-11-06T10:58:54.396Z,15.00
2017-11-06T11:01:22.790Z,12.40
2017-11-06T11:03:50.415Z,11.30
2017-11-06T11:06:18.839Z,11.68
2017-11-06T11:08:47.377Z,11.20
2017-11-06T11:11:15.748Z,13.62
2017-11-06T11:13:43.419Z,11.70
2017-11-06T11:16:11.099Z,12.75
2017-11-06T11:18:38.802Z,10.95
2017-11-06T11:21:06.556Z,12.40
2017-11-06T11:23:42.557Z,12.32
2017-11-06T11:26:10.741Z,12.55
2017-11-06T11:28:39.149Z,12.52
2017-11-06T11:31:06.748Z,13.20
2017-11-06T11:33:34.433Z,14.20
2017-11-06T11:36:02.026Z,13.15
2017-11-06T11:38:30.484Z,12.25
2017-11-06T11:40:58.138Z,12.68
2017-11-06T11:43:25.899Z,14.55
2017-11-06T11:45:53.500Z,11.12
2017-11-06T11:48:21.842Z,13.25
2017-11-06T11:50:49.664Z,11.12
2017-11-06T11:53:17.252Z,12.02
2017-11-06T11:55:44.813Z,9.70
2017-11-06T11:58:12.483Z,11.20
2017-11-06T12:00:40.249Z,13.40
2017-11-06T12:03:07.833Z,11.23
2017-11-06T12:05:35.588Z,10.02
2017-11-06T12:08:03.564Z,8.70
2017-11-06T12:10:31.952Z,9.02
2017-11-06T12:13:00.571Z,6.82
2017-11-06T12:15:28.234Z,6.47
2017-11-06T12:17:55.898Z,7.35
2017-11-06T12:20:23.719Z,5.30
2017-11-06T12:22:51.333Z,5.20
2017-11-06T12:25:29.158Z,5.00
2017-11-06T12:27:57.056Z,4.82
2017-11-06T12:30:25.407Z,5.43
2017-11-06T12:32:53.807Z,5.10
2017-11-06T12:35:21.385Z,4.35
2017-11-06T12:37:49.000Z,5.00
2017-11-06T12:40:16.619Z,7.00
2017-11-06T12:42:44.999Z,4.90
2017-11-06T12:45:13.084Z,6.10
2017-11-06T12:47:40.721Z,4.40
2017-11-06T12:50:08.341Z,6.45
2017-11-06T12:52:36.017Z,6.20
2017-11-06T12:55:03.612Z,6.62
2017-11-06T12:57:33.134Z,5.10
2017-11-06T13:00:01.533Z,4.90
2017-11-06T13:02:29.175Z,5.15
2017-11-06T13:04:57.647Z,5.22
2017-11-06T13:07:26.195Z,5.05
2017-11-06T13:09:54.627Z,4.68
2017-11-06T13:12:22.372Z,8.73
2017-11-06T13:14:50.061Z,7.40
2017-11-06T13:17:17.713Z,5.05
2017-11-06T13:19:46.067Z,5.20
2017-11-06T13:22:13.707Z,6.75
2017-11-06T13:24:41.342Z,6.45
2017-11-06T13:27:08.981Z,4.95
2017-11-06T13:29:37.606Z,5.37
2017-11-06T13:32:05.192Z,5.80
2017-11-06T13:34:32.912Z,6.05
2017-11-06T13:37:00.592Z,5.03
2017-11-06T13:39:28.200Z,5.72
2017-11-06T13:41:56.584Z,5.47
2017-11-06T13:44:25.042Z,5.95
2017-11-06T13:46:52.664Z,7.03
2017-11-06T13:49:20.287Z,6.50
2017-11-06T13:51:48.671Z,6.45
2017-11-06T13:54:17.034Z,4.15
2017-11-06T13:56:45.478Z,6.03
2017-11-06T13:59:13.244Z,5.50
2017-11-06T14:01:40.923Z,4.87
2017-11-06T14:04:08.529Z,5.40
2017-11-06T14:06:36.894Z,4.80
2017-11-06T14:09:05.280Z,4.82
2017-11-06T14:11:32.916Z,3.47
2017-11-06T14:14:00.562Z,3.90
2017-11-06T14:16:28.142Z,4.35
2017-11-06T14:18:55.732Z,4.45
2017-11-06T14:21:24.099Z,4.30
2017-11-06T14:23:51.838Z,4.80
2017-11-06T14:26:20.236Z,4.93
2017-11-06T14:28:47.909Z,4.53
2017-11-06T14:31:16.318Z,4.78
2017-11-06T14:33:44.149Z,3.87
2017-11-06T14:36:12.608Z,4.10
2017-11-06T14:38:40.245Z,4.32
2017-11-06T14:41:08.012Z,5.50
2017-11-06T14:43:35.610Z,4.30
2017-11-06T14:46:04.088Z,4.05
2017-11-06T14:48:31.774Z,5.50
2017-11-06T14:51:00.116Z,4.70
2017-11-06T14:53:27.714Z,4.40
2017-11-06T14:55:56.062Z,4.72
2017-11-06T14:58:23.729Z,4.30
2017-11-06T15:00:51.375Z,4.25
2017-11-06T15:03:19.014Z,3.97
2017-11-06T15:05:47.396Z,4.22
2017-11-06T15:08:15.079Z,4.03
2017-11-06T15:10:43.294Z,4.22
2017-11-06T15:13:10.972Z,4.50
2017-11-06T15:15:38.611Z,5.00
2017-11-06T15:18:07.011Z,4.45
2017-11-06T15:20:34.708Z,4.97
2017-11-06T15:23:02.384Z,5.25
2017-11-06T15:25:30.121Z,4.85
2017-11-06T15:27:57.920Z,5.20
2017-11-06T15:30:25.518Z,5.05
2017-11-06T15:32:53.943Z,5.50
2017-11-06T15:35:21.675Z,5.20
2017-11-06T15:37:49.295Z,5.10
2017-11-06T15:40:16.979Z,4.40
2017-11-06T15:42:45.450Z,6.03
2017-11-06T15:45:13.088Z,5.90
2017-11-06T15:47:40.764Z,6.50
2017-11-06T15:50:08.407Z,6.40
2017-11-06T15:52:36.015Z,6.65
2017-11-06T15:55:03.652Z,5.87
2017-11-06T15:57:32.108Z,6.85
2017-11-06T15:59:59.730Z,6.47
2017-11-06T16:02:28.154Z,6.00
2017-11-06T16:04:56.523Z,6.28
2017-11-06T16:07:24.106Z,6.40
2017-11-06T16:09:51.865Z,6.50
2017-11-06T16:12:19.463Z,7.15
2017-11-06T16:14:48.064Z,6.97
2017-11-06T16:17:15.960Z,5.18
2017-11-06T16:19:43.540Z,6.30
2017-11-06T16:22:11.160Z,7.20
2017-11-06T16:24:39.492Z,5.60
2017-11-06T16:27:07.146Z,6.22
2017-11-06T16:29:34.715Z,8.52
2017-11-06T16:32:16.017Z,5.78
2017-11-06T16:34:43.621Z,4.60
2017-11-06T16:37:12.339Z,6.25
2017-11-06T16:39:40.465Z,5.65
2017-11-06T16:42:08.843Z,6.20
2017-11-06T16:44:37.615Z,5.80
2017-11-06T16:47:05.290Z,5.85
2017-11-06T16:49:32.847Z,8.38
2017-11-06T16:52:00.477Z,5.87
2017-11-06T16:54:28.158Z,6.53
2017-11-06T16:56:55.817Z,5.68
2017-11-06T16:59:23.452Z,6.20
2017-11-06T17:01:51.122Z,5.87
2017-11-06T17:04:18.744Z,6.00
2017-11-06T17:06:46.337Z,6.00
2017-11-06T17:09:14.706Z,5.40
2017-11-06T17:11:44.286Z,7.15
2017-11-06T17:14:13.982Z,4.87
2017-11-06T17:16:42.898Z,6.37
2017-11-06T17:19:12.594Z,6.12
2017-11-06T17:21:44.213Z,5.50
2017-11-06T17:24:14.152Z,7.93
2017-11-06T17:26:44.940Z,6.72
2017-11-06T17:29:14.740Z,6.07
2017-11-06T17:31:44.434Z,6.47
2017-11-06T17:34:15.162Z,6.50
2017-11-06T17:36:45.467Z,7.12
2017-11-06T17:39:15.349Z,7.70
2017-11-06T17:41:45.877Z,7.57
2017-11-06T17:44:15.377Z,6.97
2017-11-06T17:46:46.202Z,6.90
2017-11-06T17:49:15.885Z,6.20
2017-11-06T17:51:46.591Z,6.62
2017-11-06T17:54:16.709Z,5.60
2017-11-06T17:56:47.628Z,5.75
2017-11-06T17:59:18.511Z,5.12
2017-11-06T18:01:49.256Z,6.10
2017-11-06T18:04:19.942Z,6.03
2017-11-06T18:06:50.471Z,8.27
2017-11-06T18:09:20.282Z,7.62
2017-11-06T18:11:50.724Z,5.43
2017-11-06T18:14:21.401Z,6.55
2017-11-06T18:16:51.220Z,8.55
2017-11-06T18:19:20.990Z,6.30
2017-11-06T18:21:50.948Z,6.05
2017-11-06T18:24:20.622Z,5.40
2017-11-06T18:26:51.158Z,6.50
2017-11-06T18:29:22.037Z,6.12
2017-11-06T18:31:56.698Z,4.87
2017-11-06T18:34:26.422Z,5.80
2017-11-06T18:36:56.282Z,5.70
2017-11-06T18:39:26.209Z,5.90
2017-11-06T18:41:56.670Z,6.37
2017-11-06T18:44:27.727Z,7.22
2017-11-06T18:46:59.297Z,6.55
2017-11-06T18:49:30.830Z,7.00
2017-11-06T18:52:01.737Z,6.40
2017-11-06T18:54:32.687Z,6.07
2017-11-06T18:57:03.864Z,6.18
2017-11-06T18:59:34.517Z,6.10
2017-11-06T19:02:05.013Z,5.43
2017-11-06T19:04:34.659Z,5.65
2017-11-06T19:07:05.273Z,5.80
2017-11-06T19:09:35.230Z,6.20
2017-11-06T19:12:14.481Z,6.25
2017-11-06T19:14:44.392Z,7.03
2017-11-06T19:17:14.730Z,7.00
2017-11-06T19:19:45.875Z,7.20
2017-11-06T19:22:16.386Z,8.52
2017-11-06T19:24:46.237Z,7.75
2017-11-06T19:27:17.895Z,7.35
2017-11-06T19:29:49.472Z,8.75
2017-11-06T19:32:20.123Z,9.18
2017-11-06T19:34:49.808Z,8.63
2017-11-06T19:37:20.309Z,7.65
2017-11-06T19:39:49.980Z,7.35
2017-11-06T19:42:19.442Z,7.80
2017-11-06T19:44:49.177Z,6.65
2017-11-06T19:47:20.950Z,7.65
2017-11-06T19:49:50.624Z,7.15
2017-11-06T19:52:20.432Z,8.18
2017-11-06T19:54:50.266Z,7.07
2017-11-06T19:57:20.705Z,7.50
2017-11-06T19:59:50.975Z,7.57
2017-11-06T20:02:20.506Z,6.82
2017-11-06T20:07:23.650Z,8.30
2017-11-06T20:09:53.090Z,8.50
2017-11-06T20:12:21.332Z,7.07
2017-11-06T20:14:50.979Z,6.35
2017-11-06T20:17:20.637Z,6.30
2017-11-06T20:19:49.996Z,6.72
2017-11-06T20:22:18.611Z,6.70
2017-11-06T20:24:48.959Z,5.70
2017-11-06T20:27:18.763Z,7.00
2017-11-06T20:29:48.450Z,6.65
2017-11-06T20:32:18.205Z,5.80
2017-11-06T20:34:47.280Z,5.80
2017-11-06T20:37:16.745Z,6.62
2017-11-06T20:39:45.778Z,6.35
2017-11-06T20:42:14.699Z,6.30
2017-11-06T20:44:43.593Z,6.75
2017-11-06T20:47:13.215Z,6.87
2017-11-06T20:49:42.448Z,5.87
2017-11-06T20:52:13.176Z,6.47
2017-11-06T20:54:42.656Z,6.85
2017-11-06T20:57:13.776Z,5.60
2017-11-06T20:59:41.322Z,5.78
2017-11-06T21:02:08.888Z,6.68
2017-11-06T21:04:36.482Z,6.53
2017-11-06T21:07:06.121Z,6.40
2017-11-06T21:09:35.725Z,6.80
2017-11-06T21:12:03.328Z,5.72
2017-11-06T21:14:30.917Z,5.75
2017-11-06T21:16:58.498Z,5.50
2017-11-06T21:19:26.056Z,6.12
2017-11-06T21:21:53.645Z,6.10
2017-11-06T21:24:21.963Z,6.35
2017-11-06T21:26:49.549Z,6.25
2017-11-06T21:29:22.933Z,6.15
2017-11-06T21:31:50.508Z,6.35
2017-11-06T21:34:18.111Z,6.43
2017-11-06T21:36:46.420Z,5.43
2017-11-06T21:39:14.083Z,5.70
2017-11-06T21:41:41.630Z,5.32
2017-11-06T21:44:09.217Z,6.35
2017-11-06T21:46:36.790Z,6.28
2017-11-06T21:49:04.439Z,5.70
2017-11-06T21:51:32.086Z,5.87
2017-11-06T21:53:59.674Z,5.25
2017-11-06T21:56:27.258Z,6.03
2017-11-06T21:58:55.590Z,5.12
2017-11-06T22:01:23.185Z,5.22
2017-11-06T22:03:50.733Z,6.12
2017-11-06T22:06:18.306Z,5.72
2017-11-06T22:08:45.859Z,5.45
2017-11-06T22:11:13.459Z,6.37
2017-11-06T22:13:41.839Z,6.18
2017-11-06T22:16:09.430Z,7.07
2017-11-06T22:18:37.018Z,5.53
2017-11-06T22:21:04.569Z,6.05
2017-11-06T22:23:32.148Z,6.40
2017-11-06T22:25:59.738Z,5.15
2017-11-06T22:28:28.052Z,5.20
2017-11-06T22:30:55.638Z,5.07
2017-11-06T22:33:23.190Z,5.85
2017-11-06T22:35:50.782Z,5.05
2017-11-06T22:38:19.112Z,4.30
2017-11-06T22:40:46.673Z,5.85
2017-11-06T22:43:14.271Z,4.87
2017-11-06T22:45:41.873Z,5.93
2017-11-06T22:48:09.436Z,5.40
2017-11-06T22:50:36.990Z,5.85
2017-11-06T22:53:04.592Z,5.70
2017-11-06T22:55:32.176Z,4.95
2017-11-06T22:57:59.763Z,5.85
2017-11-06T23:00:28.085Z,5.75
2017-11-06T23:02:55.677Z,7.60
2017-11-06T23:05:23.221Z,5.80
2017-11-06T23:07:50.771Z,6.57
2017-11-06T23:10:18.369Z,5.87
2017-11-06T23:12:46.695Z,5.90
2017-11-06T23:15:19.995Z,5.95
2017-11-06T23:17:47.566Z,6.20
2017-11-06T23:20:15.166Z,6.70
2017-11-06T23:22:43.942Z,6.03
2017-11-06T23:25:11.587Z,6.87
2017-11-06T23:27:39.133Z,6.57
2017-11-06T23:30:07.748Z,5.70
2017-11-06T23:32:35.347Z,4.72
2017-11-06T23:35:02.896Z,6.05
2017-11-06T23:37:30.446Z,6.30
2017-11-06T23:39:58.803Z,5.57
2017-11-06T23:42:26.366Z,6.35
2017-11-06T23:44:55.416Z,5.25
2017-11-06T23:47:23.006Z,5.57
2017-11-06T23:49:50.550Z,5.10
2017-11-06T23:52:18.130Z,5.65
2017-11-06T23:54:45.742Z,5.85
2017-11-06T23:57:13.310Z,5.62
2017-11-06T23:59:40.874Z,5.20
